Time;durP1;ratioP1;P1;durP2;ratioP2;P2;SDS_P1;SDS_P2;PMS_P1;PMS_P2;Temp;Humidity;BMP_temperature;BMP_pressure;BME280_temperature;BME280_humidity;BME280_pressure;Samples;Min_cycle;Max_cycle;Signal;HPM_P1;HPM_P2
2022/03/02 00:02:06;;;;;;;36.75;27.52;;;;;;;;;;5082866;28;20420;-76
2022/03/02 00:04:32;;;;;;;38.47;26.97;;;;;;;;;;5099864;28;20506;-76
2022/03/02 00:06:58;;;;;;;37.20;27.23;;;;;;;;;;5087393;28;20474;-76
2022/03/02 00:09:24;;;;;;;39.45;27.20;;;;;;;;;;5096778;28;20427;-76
2022/03/02 00:11:50;;;;;;;40.55;28.05;;;;;;;;;;5102773;28;20442;-76
2022/03/02 00:14:16;;;;;;;38.30;26.98;;;;;;;;;;5104683;28;20760;-76
2022/03/02 00:16:42;;;;;;;38.43;28.07;;;;;;;;;;5098535;28;20448;-76
2022/03/02 00:19:09;;;;;;;38.80;27.73;;;;;;;;;;5071640;28;20424;-77
2022/03/02 00:21:35;;;;;;;39.30;27.63;;;;;;;;;;5098242;28;20532;-77
2022/03/02 00:24:04;;;;;;;38.85;26.98;;;;;;;;;;5084026;28;20422;-77
2022/03/02 00:26:33;;;;;;;39.13;27.27;;;;;;;;;;5081161;28;20416;-77
2022/03/02 00:28:59;;;;;;;38.42;26.90;;;6.00;99.90;;;;;;5086409;28;20489;-77
2022/03/02 00:31:25;;;;;;;39.13;28.10;;;;;;;;;;5098760;28;20776;-77
2022/03/02 00:33:52;;;;;;;40.35;28.08;;;;;;;;;;5066590;28;20418;-77
2022/03/02 00:36:18;;;;;;;39.25;27.20;;;;;;;;;;5079970;28;20412;-77
2022/03/02 00:38:44;;;;;;;39.75;28.02;;;;;;;;;;5082258;28;20418;-77
2022/03/02 00:41:10;;;;;;;40.13;27.33;;;;;;;;;;5077482;28;20470;-77
2022/03/02 00:43:36;;;;;;;38.58;27.92;;;;;;;;;;5097889;28;20422;-77
2022/03/02 00:46:02;;;;;;;40.78;27.88;;;;;;;;;;5084271;28;20487;-77
2022/03/02 00:48:28;;;;;;;40.83;28.80;;;;;;;;;;5099633;28;20952;-77
2022/03/02 00:50:54;;;;;;;38.65;27.13;;;;;;;;;;5104476;28;20435;-77
2022/03/02 00:53:20;;;;;;;38.33;27.90;;;;;;;;;;5103192;28;20404;-77
2022/03/02 00:55:47;;;;;;;41.72;28.70;;;;;;;;;;5099383;28;20980;-77
2022/03/02 00:58:13;;;;;;;41.45;28.70;;;5.70;99.90;;;;;;5101945;28;20451;-77
2022/03/02 01:00:39;;;;;;;42.25;28.15;;;;;;;;;;5101531;28;21605;-77
2022/03/02 01:03:05;;;;;;;41.13;28.55;;;;;;;;;;5103856;28;20914;-77
2022/03/02 01:05:31;;;;;;;42.45;28.45;;;;;;;;;;5091276;28;20415;-77
2022/03/02 01:07:58;;;;;;;39.95;28.35;;;;;;;;;;5099305;28;20416;-77
2022/03/02 01:10:24;;;;;;;39.67;28.88;;;;;;;;;;5096538;28;20435;-77
2022/03/02 01:12:50;;;;;;;42.85;28.95;;;;;;;;;;5100605;28;20768;-77
2022/03/02 01:15:16;;;;;;;40.88;28.35;;;;;;;;;;5099259;28;20412;-77
2022/03/02 01:17:42;;;;;;;40.35;28.60;;;;;;;;;;5107179;28;20408;-77
2022/03/02 01:20:10;;;;;;;41.00;28.40;;;6.30;99.90;;;;;;5109358;28;20737;-77
2022/03/02 01:22:37;;;;;;;42.38;28.48;;;;;;;;;;5101939;28;20919;-77
2022/03/02 01:25:04;;;;;;;38.30;27.52;;;6.10;99.90;;;;;;5075421;28;20417;-77
2022/03/02 01:27:30;;;;;;;38.72;27.70;;;;;;;;;;5100901;28;20410;-77
2022/03/02 01:29:56;;;;;;;41.03;27.77;;;;;;;;;;5108297;28;20416;-77
2022/03/02 01:32:22;;;;;;;38.92;27.25;;;;;;;;;;5087401;28;20420;-77
2022/03/02 01:34:49;;;;;;;42.70;28.15;;;;;;;;;;5090881;28;20903;-77
2022/03/02 01:37:15;;;;;;;40.88;28.27;;;;;;;;;;5094909;28;20410;-77
2022/03/02 01:39:41;;;;;;;38.88;27.65;;;;;;;;;;5073398;28;20421;-77
2022/03/02 01:42:07;;;;;;;38.83;27.23;;;;;;;;;;5083190;28;20416;-77
2022/03/02 01:44:34;;;;;;;38.92;27.25;;;5.80;99.90;;;;;;5107919;28;20427;-77
2022/03/02 01:47:01;;;;;;;41.58;27.67;;;;;;;;;;5088868;28;20816;-77
2022/03/02 01:49:27;;;;;;;39.97;27.65;;;;;;;;;;5100721;28;20508;-77
2022/03/02 01:51:53;;;;;;;38.92;27.42;;;;;;;;;;5108936;28;20917;-77
2022/03/02 01:54:19;;;;;;;39.90;26.98;;;;;;;;;;5071038;28;20818;-77
2022/03/02 01:56:46;;;;;;;40.85;26.95;;;;;;;;;;5084345;28;20461;-77
2022/03/02 01:59:12;;;;;;;45.65;28.02;;;;;;;;;;5081273;28;20832;-76
2022/03/02 02:01:38;;;;;;;39.60;27.67;;;;;;;;;;5105050;28;20417;-76
2022/03/02 02:04:05;;;;;;;40.87;28.53;;;5.80;99.90;;;;;;5107234;28;20972;-76
2022/03/02 02:06:31;;;;;;;39.42;28.05;;;;;;;;;;5088344;28;20939;-76
2022/03/02 02:08:58;;;;;;;38.72;27.58;;;;;;;;;;5087296;28;20425;-76
2022/03/02 02:11:24;;;;;;;42.03;28.95;;;;;;;;;;5101716;28;20949;-75
2022/03/02 02:13:50;;;;;;;39.90;28.70;;;;;;;;;;5088554;28;20470;-75
2022/03/02 02:16:17;;;;;;;40.58;28.35;;;;;;;;;;5108418;28;20577;-75
2022/03/02 02:18:44;;;;;;;41.60;29.60;;;;;;;;;;5103574;28;20416;-75
2022/03/02 02:21:10;;;;;;;41.95;29.15;;;5.60;99.90;;;;;;5093749;28;20447;-74
2022/03/02 02:23:37;;;;;;;44.13;29.58;;;;;;;;;;5088139;28;20438;-75
2022/03/02 02:26:04;;;;;;;43.40;29.08;;;5.50;99.90;;;;;;5085856;28;20419;-75
2022/03/02 02:28:31;;;;;;;43.20;30.13;;;;;;;;;;5078026;28;20501;-75
2022/03/02 02:30:58;;;;;;;43.00;28.92;;;6.00;99.90;;;;;;5106731;28;20487;-75
2022/03/02 02:33:25;;;;;;;42.57;29.57;;;;;;;;;;5095890;28;21018;-76
2022/03/02 02:35:51;;;;;;;44.03;30.20;;;;;;;;;;5096450;28;20417;-76
2022/03/02 02:38:18;;;;;;;44.00;29.83;;;5.50;99.90;;;;;;5103847;28;20779;-76
2022/03/02 02:40:45;;;;;;;43.00;30.23;;;;;;;;;;5087119;28;20418;-76
2022/03/02 02:43:11;;;;;;;43.00;29.67;;;;;;;;;;5106659;28;20545;-76
2022/03/02 02:45:37;;;;;;;46.63;31.47;;;;;;;;;;5092980;28;20982;-76
2022/03/02 02:48:04;;;;;;;45.25;31.35;;;;;;;;;;5097743;28;20418;-76
2022/03/02 02:50:32;;;;;;;47.45;30.42;;;5.60;99.90;;;;;;5103681;28;20906;-76
2022/03/02 02:53:00;;;;;;;44.78;29.90;;;;;;;;;;5098825;28;20424;-76
2022/03/02 02:55:27;;;;;;;45.90;31.10;;;;;;;;;;5102454;28;20419;-76
2022/03/02 02:57:54;;;;;;;45.37;31.37;;;;;;;;;;5110157;28;20412;-76
2022/03/02 03:00:20;;;;;;;49.95;33.30;;;;;;;;;;5069588;28;20418;-76
2022/03/02 03:02:48;;;;;;;48.45;32.03;;;;;;;;;;5090179;28;20440;-76
2022/03/02 03:05:16;;;;;;;49.17;32.65;;;5.30;99.90;;;;;;5085409;28;20419;-76
2022/03/02 03:07:42;;;;;;;46.37;31.83;;;;;;;;;;5106317;28;20860;-76
2022/03/02 03:10:10;;;;;;;47.00;32.45;;;;;;;;;;5100371;28;20406;-76
2022/03/02 03:12:37;;;;;;;50.20;34.78;;;;;;;;;;5087815;28;20881;-76
2022/03/02 03:15:04;;;;;;;49.08;32.38;;;5.20;99.90;;;;;;5103051;28;20409;-76
2022/03/02 03:17:31;;;;;;;48.10;32.70;;;;;;;;;;5107794;28;20416;-76
2022/03/02 03:19:57;;;;;;;49.40;32.17;;;;;;;;;;5088685;28;20430;-76
2022/03/02 03:22:23;;;;;;;50.97;33.60;;;;;;;;;;5082503;28;20473;-76
2022/03/02 03:24:49;;;;;;;48.00;32.67;;;;;;;;;;5110355;28;20433;-76
2022/03/02 03:27:15;;;;;;;50.83;33.35;;;;;;;;;;5102308;28;20775;-76
2022/03/02 03:29:41;;;;;;;49.53;32.63;;;;;;;;;;5065950;28;20412;-76
2022/03/02 03:32:08;;;;;;;51.28;33.53;;;;;;;;;;5100377;28;20429;-76
2022/03/02 03:34:34;;;;;;;50.55;32.40;;;;;;;;;;5083541;28;20465;-76
2022/03/02 03:37:00;;;;;;;51.90;33.23;;;;;;;;;;5100920;28;20421;-76
2022/03/02 03:39:26;;;;;;;48.78;33.15;;;;;;;;;;5099344;28;20413;-76
2022/03/02 03:41:52;;;;;;;50.80;33.58;;;;;;;;;;5092348;28;20425;-76
2022/03/02 03:44:18;;;;;;;53.08;33.88;;;;;;;;;;5106461;28;20411;-76
2022/03/02 03:46:45;;;;;;;52.47;34.38;;;;;;;;;;5089635;28;20915;-76
2022/03/02 03:49:11;;;;;;;49.38;33.35;;;;;;;;;;5097865;28;20418;-76
2022/03/02 03:51:37;;;;;;;53.28;35.00;;;;;;;;;;5084459;28;20734;-75
2022/03/02 03:54:03;;;;;;;52.90;34.33;;;;;;;;;;5100453;28;20408;-76
2022/03/02 03:56:30;;;;;;;53.22;34.58;;;;;;;;;;5101985;28;20444;-76
2022/03/02 03:58:58;;;;;;;53.63;34.97;;;;;;;;;;5095805;28;20461;-76
2022/03/02 04:01:24;;;;;;;53.92;34.95;;;;;;;;;;5100180;28;20919;-76
2022/03/02 04:03:51;;;;;;;55.83;36.08;;;;;;;;;;5084480;28;20404;-76
2022/03/02 04:06:17;;;;;;;55.87;36.13;;;;;;;;;;5102313;28;20412;-76
2022/03/02 04:08:44;;;;;;;56.92;36.40;;;;;;;;;;5102953;28;20419;-76
2022/03/02 04:11:10;;;;;;;56.97;36.47;;;;;;;;;;5101952;28;20427;-76
2022/03/02 04:13:36;;;;;;;56.95;36.85;;;;;;;;;;5084534;28;20417;-76
2022/03/02 04:16:02;;;;;;;56.50;37.20;;;;;;;;;;5101897;28;20419;-76
2022/03/02 04:18:28;;;;;;;59.33;37.42;;;;;;;;;;5101422;28;20420;-76
2022/03/02 04:20:54;;;;;;;58.05;36.65;;;;;;;;;;5098485;28;20413;-76
2022/03/02 04:23:22;;;;;;;60.13;37.22;;;;;;;;;;5097116;28;20485;-76
2022/03/02 04:25:48;;;;;;;58.38;37.25;;;;;;;;;;5102459;28;20901;-76
2022/03/02 04:28:14;;;;;;;59.10;38.70;;;;;;;;;;5099268;28;20423;-76
2022/03/02 04:30:41;;;;;;;62.40;39.40;;;;;;;;;;5101103;28;20507;-76
2022/03/02 04:33:07;;;;;;;62.35;39.05;;;;;;;;;;5076058;28;20550;-75
2022/03/02 04:35:34;;;;;;;62.40;38.55;;;;;;;;;;5105408;28;20450;-75
2022/03/02 04:38:01;;;;;;;61.97;38.97;;;;;;;;;;5097531;28;20441;-75
2022/03/02 04:40:27;;;;;;;64.57;39.67;;;;;;;;;;5073815;28;20418;-75
2022/03/02 04:42:54;;;;;;;63.85;39.58;;;;;;;;;;5079913;28;20419;-76
2022/03/02 04:45:30;;;;;;;64.80;39.40;;;;;;;;;;5097119;28;20410;-76
2022/03/02 04:47:57;;;;;;;61.60;39.05;;;;;;;;;;5082280;28;20795;-76
2022/03/02 04:50:23;;;;;;;67.30;41.20;;;;;;;;;;5072599;28;21002;-76
2022/03/02 04:52:51;;;;;;;65.20;40.53;;;;;;;;;;5107854;28;20417;-76
2022/03/02 04:55:17;;;;;;;67.45;41.00;;;;;;;;;;5087102;28;22022;-76
2022/03/02 04:57:44;;;;;;;65.45;41.00;;;;;;;;;;5107468;28;20895;-76
2022/03/02 05:00:13;;;;;;;62.63;40.20;;;;;;;;;;5096493;28;20420;-76
2022/03/02 05:02:41;;;;;;;66.47;40.92;;;;;;;;;;5084692;28;20468;-76
2022/03/02 05:05:07;;;;;;;66.50;41.83;;;;;;;;;;5102411;28;20455;-76
2022/03/02 05:07:34;;;;;;;67.75;41.28;;;;;;;;;;5091843;28;20413;-76
2022/03/02 05:10:00;;;;;;;63.60;40.60;;;;;;;;;;5082733;28;20982;-76
2022/03/02 05:12:26;;;;;;;68.65;41.40;;;;;;;;;;5071724;28;20418;-76
2022/03/02 05:14:52;;;;;;;68.07;40.70;;;;;;;;;;5095253;28;20417;-75
2022/03/02 05:17:18;;;;;;;67.95;41.08;;;;;;;;;;5086187;28;20538;-76
2022/03/02 05:19:45;;;;;;;67.63;41.40;;;;;;;;;;5093917;28;20415;-76
2022/03/02 05:22:11;;;;;;;68.53;41.08;;;;;;;;;;5107417;28;20416;-76
2022/03/02 05:24:37;;;;;;;67.68;40.78;;;;;;;;;;5104326;28;20404;-76
2022/03/02 05:27:04;;;;;;;67.67;42.13;;;3.10;99.90;;;;;;5095571;28;20466;-76
2022/03/02 05:29:30;;;;;;;66.78;40.90;;;;;;;;;;5103419;28;20435;-76
2022/03/02 05:31:56;;;;;;;67.50;41.42;;;;;;;;;;5091107;28;20480;-75
2022/03/02 05:34:22;;;;;;;69.32;43.33;;;;;;;;;;5074976;28;20751;-76
2022/03/02 05:36:48;;;;;;;67.18;42.15;;;;;;;;;;5100424;28;20756;-76
2022/03/02 05:39:14;;;;;;;67.07;42.30;;;;;;;;;;5101975;28;20536;-76
2022/03/02 05:41:40;;;;;;;70.85;40.60;;;;;;;;;;5101437;28;20469;-76
2022/03/02 05:44:08;;;;;;;70.07;43.17;;;;;;;;;;5092097;28;20446;-76
2022/03/02 05:46:37;;;;;;;68.90;42.75;;;;;;;;;;5098572;28;20479;-76
2022/03/02 05:49:04;;;;;;;72.77;42.10;;;;;;;;;;5091698;28;20410;-76
2022/03/02 05:51:30;;;;;;;79.25;45.63;;;;;;;;;;5091583;28;20417;-76
2022/03/02 05:53:57;;;;;;;73.38;44.13;;;;;;;;;;5083312;28;20413;-76
2022/03/02 05:56:24;;;;;;;69.10;41.47;;;;;;;;;;5063903;28;20412;-76
2022/03/02 05:58:51;;;;;;;73.32;45.03;;;;;;;;;;5101054;28;20419;-76
2022/03/02 06:01:17;;;;;;;76.20;45.20;;;;;;;;;;5087144;28;20431;-76
2022/03/02 06:03:44;;;;;;;71.55;42.20;;;;;;;;;;5083242;28;20426;-76
2022/03/02 06:06:10;;;;;;;71.70;43.55;;;;;;;;;;5094803;28;20466;-76
2022/03/02 06:08:36;;;;;;;71.95;43.17;;;;;;;;;;5097256;28;20449;-75
2022/03/02 06:11:03;;;;;;;85.53;44.60;;;;;;;;;;5096375;28;20422;-76
2022/03/02 06:13:29;;;;;;;72.27;42.50;;;;;;;;;;5097052;28;20408;-74
2022/03/02 06:15:57;;;;;;;75.18;43.95;;;;;;;;;;5103969;28;20419;-75
2022/03/02 06:18:23;;;;;;;71.72;44.38;;;;;;;;;;5105246;28;20811;-75
2022/03/02 06:20:52;;;;;;;71.93;44.00;;;2.40;99.90;;;;;;5094393;28;20422;-75
2022/03/02 06:23:19;;;;;;;72.13;43.17;;;2.30;99.90;;;;;;5100229;28;20425;-75
2022/03/02 06:25:45;;;;;;;70.43;43.10;;;;;;;;;;5096398;28;20588;-74
2022/03/02 06:28:12;;;;;;;71.57;43.20;;;;;;;;;;5099631;28;20938;-75
2022/03/02 06:30:38;;;;;;;75.65;44.70;;;;;;;;;;5091686;28;20449;-75
2022/03/02 06:33:04;;;;;;;72.57;42.63;;;;;;;;;;5106057;28;20426;-75
2022/03/02 06:35:30;;;;;;;68.00;42.60;;;;;;;;;;5101833;28;20420;-75
2022/03/02 06:37:57;;;;;;;70.32;42.72;;;;;;;;;;5098208;28;20412;-74
2022/03/02 06:40:23;;;;;;;69.97;42.10;;;;;;;;;;5104528;28;20418;-75
2022/03/02 06:43:05;;;;;;;68.85;42.67;;;;;;;;;;5083830;28;20497;-75
2022/03/02 06:45:50;;;;;;;66.87;41.13;;;;;;;;;;5105931;28;20511;-77
2022/03/02 06:48:20;;;;;;;67.55;42.83;;;;;;;;;;5100950;28;20452;-76
2022/03/02 06:50:50;;;;;;;69.53;42.25;;;;;;;;;;5096949;28;20491;-76
2022/03/02 06:53:16;;;;;;;68.78;42.30;;;;;;;;;;5098828;28;20408;-77
2022/03/02 06:55:43;;;;;;;68.65;41.95;;;;;;;;;;5097780;28;20409;-77
2022/03/02 06:58:11;;;;;;;67.72;41.92;;;2.40;99.90;;;;;;5098061;28;20491;-75
2022/03/02 07:00:51;;;;;;;65.00;41.40;;;2.40;99.90;;;;;;5100787;28;20495;-75
2022/03/02 07:03:18;;;;;;;66.73;42.37;;;;;;;;;;5093974;28;20773;-75
2022/03/02 07:05:46;;;;;;;65.35;40.88;;;2.80;99.90;;;;;;5099567;28;20417;-75
2022/03/02 07:08:13;;;;;;;65.88;41.55;;;;;;;;;;5086487;28;20412;-75
2022/03/02 07:10:39;;;;;;;64.28;41.88;;;;;;;;;;5086378;28;20936;-75
2022/03/02 07:13:06;;;;;;;62.22;40.80;;;;;;;;;;5101429;28;20417;-75
2022/03/02 07:15:33;;;;;;;63.00;39.72;;;;;;;;;;5083444;28;20422;-75
2022/03/02 07:17:59;;;;;;;62.88;39.47;;;;;;;;;;5097254;28;20445;-75
2022/03/02 07:20:27;;;;;;;61.40;40.38;;;;;;;;;;5081287;28;20493;-75
2022/03/02 07:22:53;;;;;;;64.63;39.93;;;;;;;;;;5097921;28;20437;-75
2022/03/02 07:25:21;;;;;;;63.13;39.88;;;;;;;;;;5100430;28;20430;-75
2022/03/02 07:27:49;;;;;;;57.88;37.72;;;;;;;;;;5086342;28;20413;-75
2022/03/02 07:30:16;;;;;;;61.20;38.33;;;;;;;;;;5087518;28;20426;-75
2022/03/02 07:32:45;;;;;;;59.00;38.63;;;;;;;;;;5097787;28;20472;-73
2022/03/02 07:35:12;;;;;;;57.42;37.72;;;3.40;99.90;;;;;;5105831;28;20416;-72
2022/03/02 07:37:38;;;;;;;58.30;36.92;;;;;;;;;;5103626;28;20427;-72
2022/03/02 07:40:06;;;;;;;56.33;36.90;;;3.50;99.90;;;;;;5078807;28;20477;-72
2022/03/02 07:42:32;;;;;;;54.92;37.38;;;;;;;;;;5078582;28;20469;-75
2022/03/02 07:44:58;;;;;;;57.17;36.13;;;;;;;;;;5094053;28;20413;-75
2022/03/02 07:47:25;;;;;;;55.65;36.80;;;;;;;;;;5099628;28;20418;-75
2022/03/02 07:49:51;;;;;;;57.75;37.05;;;;;;;;;;5098350;28;20507;-75
2022/03/02 07:52:20;;;;;;;55.38;36.58;;;4.10;99.90;;;;;;5097088;28;20414;-75
2022/03/02 07:54:49;;;;;;;54.08;35.65;;;;;;;;;;5099765;28;20937;-75
2022/03/02 07:57:15;;;;;;;54.60;35.90;;;;;;;;;;5082256;28;20416;-75
2022/03/02 07:59:43;;;;;;;55.38;35.08;;;;;;;;;;5101616;28;20414;-75
2022/03/02 08:02:10;;;;;;;49.22;34.30;;;;;;;;;;5099730;28;20832;-76
2022/03/02 08:04:37;;;;;;;53.23;35.77;;;4.60;99.90;;;;;;5099439;28;20498;-75
2022/03/02 08:07:04;;;;;;;55.67;36.15;;;;;;;;;;5099268;28;20473;-75
2022/03/02 08:09:34;;;;;;;51.78;34.83;;;;;;;;;;5100486;28;20451;-75
2022/03/02 08:12:01;;;;;;;51.30;34.57;;;;;;;;;;5091090;28;20459;-76
2022/03/02 08:14:27;;;;;;;51.35;34.40;;;;;;;;;;5095883;28;20473;-75
2022/03/02 08:16:54;;;;;;;51.72;35.33;;;4.40;99.90;;;;;;5099823;28;20503;-75
2022/03/02 08:19:22;;;;;;;48.67;33.93;;;;;;;;;;5082240;28;20845;-75
2022/03/02 08:21:57;;;;;;;50.97;34.35;;;;;;;;;;5075740;28;20421;-77
2022/03/02 08:24:24;;;;;;;48.70;33.70;;;;;;;;;;5097497;28;20460;-76
2022/03/02 08:26:54;;;;;;;51.87;34.70;;;5.00;99.90;;;;;;5097942;28;20416;-76
2022/03/02 08:29:20;;;;;;;49.88;34.20;;;5.00;99.90;;;;;;5101436;28;20443;-76
2022/03/02 08:31:48;;;;;;;50.67;33.67;;;;;;;;;;5102056;28;20417;-76
2022/03/02 08:34:15;;;;;;;49.85;33.20;;;;;;;;;;5099356;28;20495;-76
2022/03/02 08:36:43;;;;;;;48.83;33.83;;;;;;;;;;5098559;28;20550;-77
2022/03/02 08:39:10;;;;;;;50.10;34.20;;;;;;;;;;5096307;28;20423;-77
2022/03/02 08:41:39;;;;;;;47.08;32.53;;;;;;;;;;5096128;28;20508;-77
2022/03/02 08:44:05;;;;;;;48.92;33.30;;;;;;;;;;5095294;28;20413;-77
2022/03/02 08:46:32;;;;;;;47.70;32.88;;;5.60;99.90;;;;;;5103758;28;20417;-77
2022/03/02 08:48:58;;;;;;;48.53;32.67;;;;;;;;;;5082169;28;20419;-76
2022/03/02 08:51:25;;;;;;;47.17;31.73;;;;;;;;;;5103014;28;20507;-76
2022/03/02 08:53:53;;;;;;;46.67;31.55;;;;;;;;;;5098936;28;20516;-77
2022/03/02 08:56:20;;;;;;;47.50;31.35;;;5.90;99.90;;;;;;5080117;28;20423;-76
2022/03/02 08:58:46;;;;;;;46.50;30.48;;;;;;;;;;5096686;28;20416;-77
2022/03/02 09:01:14;;;;;;;46.40;32.38;;;6.20;99.90;;;;;;5087695;28;20423;-76
2022/03/02 09:03:43;;;;;;;44.85;30.42;;;;;;;;;;5082606;28;20419;-76
2022/03/02 09:06:10;;;;;;;44.20;30.27;;;;;;;;;;5099959;28;20997;-76
2022/03/02 09:08:37;;;;;;;42.28;29.95;;;;;;;;;;5092676;28;20925;-76
2022/03/02 09:11:03;;;;;;;45.08;30.30;;;;;;;;;;5097204;28;22360;-76
2022/03/02 09:13:31;;;;;;;44.65;30.15;;;;;;;;;;5084785;28;21029;-76
2022/03/02 09:15:57;;;;;;;43.50;29.85;;;;;;;;;;5079164;28;20483;-77
2022/03/02 09:18:24;;;;;;;42.42;30.48;;;;;;;;;;5100585;28;20451;-77
2022/03/02 09:20:56;;;;;;;42.05;28.95;;;7.10;99.90;;;;;;5079821;28;20424;-76
2022/03/02 09:23:27;;;;;;;42.50;29.10;;;6.80;99.90;;;;;;5075610;28;20416;-76
2022/03/02 09:25:56;;;;;;;40.65;29.13;;;7.40;99.90;;;;;;5109588;28;20416;-76
2022/03/02 09:28:26;;;;;;;39.75;28.50;;;7.50;99.90;;;;;;5075590;28;20421;-77
2022/03/02 09:30:53;;;;;;;40.92;28.25;;;;;;;;;;5107569;28;20761;-77
2022/03/02 09:33:23;;;;;;;41.43;28.10;;;;;;;;;;5102650;28;21040;-76
2022/03/02 09:35:51;;;;;;;40.28;28.42;;;;;;;;;;5108014;28;20444;-77
2022/03/02 09:38:20;;;;;;;37.63;27.48;;;;;;;;;;5096191;28;20422;-76
2022/03/02 09:40:49;;;;;;;41.47;28.00;;;;;;;;;;5093984;28;20425;-77
2022/03/02 09:43:19;;;;;;;34.97;26.30;;;;;;;;;;5105611;28;20507;-77
2022/03/02 09:45:49;;;;;;;38.25;25.88;;;;;;;;;;5104842;28;21565;-76
2022/03/02 09:48:30;;;;;;;39.95;26.85;;;;;;;;;;5097050;28;20416;-76
2022/03/02 09:51:03;;;;;;;37.63;27.58;;;7.60;99.90;;;;;;5090155;28;20470;-77
2022/03/02 09:53:30;;;;;;;39.80;26.15;;;;;;;;;;5096467;28;20735;-74
2022/03/02 09:55:58;;;;;;;37.08;26.08;;;;;;;;;;5095082;28;20419;-74
2022/03/02 09:58:25;;;;;;;38.23;26.30;;;7.90;99.90;;;;;;5078509;28;20442;-74
2022/03/02 10:00:54;;;;;;;36.53;25.85;;;;;;;;;;5080578;28;20416;-74
2022/03/02 10:03:20;;;;;;;38.25;26.13;;;;;;;;;;5076199;28;20409;-73
2022/03/02 10:05:49;;;;;;;37.47;26.33;;;8.20;99.90;;;;;;5094125;28;20485;-74
2022/03/02 10:08:18;;;;;;;36.40;25.95;;;;;;;;;;5107051;28;20415;-73
2022/03/02 10:10:46;;;;;;;37.73;26.17;;;;;;;;;;5100238;28;20540;-74
2022/03/02 10:13:12;;;;;;;40.70;27.27;;;8.70;99.90;;;;;;5104501;28;20937;-73
2022/03/02 10:15:39;;;;;;;34.92;24.17;;;;;;;;;;5084289;28;20457;-74
2022/03/02 10:18:11;;;;;;;35.50;26.30;;;8.40;99.90;;;;;;5085655;28;20427;-74
2022/03/02 10:20:40;;;;;;;36.30;25.65;;;8.90;99.90;;;;;;5091078;28;20423;-74
2022/03/02 10:23:29;;;;;;;36.05;25.10;;;8.90;99.90;;;;;;5102045;28;20427;-74
2022/03/02 10:26:01;;;;;;;35.97;25.05;;;;;;;;;;5086891;28;20404;-74
2022/03/02 10:28:29;;;;;;;33.90;23.48;;;;;;;;;;5100345;28;20458;-74
2022/03/02 10:31:14;;;;;;;32.83;23.60;;;;;;;;;;5109575;28;20508;-74
2022/03/02 10:33:56;;;;;;;34.03;23.02;;;8.80;99.90;;;;;;5090748;28;20444;-74
2022/03/02 10:36:25;;;;;;;33.28;23.50;;;;;;;;;;5105168;28;20416;-74
2022/03/02 10:39:00;;;;;;;33.28;23.58;;;;;;;;;;5097040;28;20419;-74
2022/03/02 10:41:28;;;;;;;34.15;23.25;;;9.50;99.90;;;;;;5095294;28;20514;-74
2022/03/02 10:43:54;;;;;;;33.05;22.48;;;;;;;;;;5081822;28;20418;-74
2022/03/02 10:46:22;;;;;;;30.92;21.65;;;9.60;99.90;;;;;;5097845;28;20426;-74
2022/03/02 10:48:58;;;;;;;31.02;22.13;;;;;;;;;;5108829;28;20930;-73
2022/03/02 10:51:25;;;;;;;30.67;22.15;;;;;;;;;;5097539;28;20420;-75
2022/03/02 10:53:53;;;;;;;32.80;23.30;;;9.80;99.90;;;;;;5085169;28;20507;-74
2022/03/02 10:56:21;;;;;;;33.00;22.63;;;;;;;;;;5086896;28;20907;-74
2022/03/02 10:58:50;;;;;;;30.92;21.95;;;;;;;;;;5106688;28;20423;-74
2022/03/02 11:01:18;;;;;;;29.83;21.63;;;9.70;99.90;;;;;;5085855;28;20420;-74
2022/03/02 11:03:44;;;;;;;32.03;22.60;;;;;;;;;;5107551;28;20955;-74
2022/03/02 11:06:11;;;;;;;29.80;21.33;;;;;;;;;;5107345;28;21065;-74
2022/03/02 11:08:38;;;;;;;31.95;22.25;;;10.10;99.90;;;;;;5082104;28;20425;-74
2022/03/02 11:11:08;;;;;;;30.85;20.92;;;;;;;;;;5101503;28;20503;-74
2022/03/02 11:13:34;;;;;;;29.42;20.40;;;10.10;99.90;;;;;;5101143;28;20471;-74
2022/03/02 11:16:03;;;;;;;30.67;21.53;;;10.00;99.90;;;;;;5106401;28;20463;-74
2022/03/02 11:18:41;;;;;;;29.55;20.48;;;9.90;99.90;;;;;;5085102;28;20416;-74
2022/03/02 11:21:10;;;;;;;29.33;21.55;;;;;;;;;;5093707;28;20417;-74
2022/03/02 11:23:53;;;;;;;30.20;20.88;;;9.70;99.90;;;;;;5098437;28;20416;-74
2022/03/02 11:26:31;;;;;;;28.63;20.30;;;9.90;99.90;;;;;;5099974;28;20412;-74
2022/03/02 11:28:59;;;;;;;29.27;20.65;;;10.10;99.90;;;;;;5106606;28;20782;-74
2022/03/02 11:31:31;;;;;;;29.27;21.33;;;10.00;99.90;;;;;;5085809;28;20834;-74
2022/03/02 11:34:14;;;;;;;28.88;20.98;;;9.80;99.90;;;;;;5100394;28;20420;-74
2022/03/02 11:36:45;;;;;;;30.58;21.08;;;10.20;99.90;;;;;;5084855;28;20762;-74
2022/03/02 11:39:11;;;;;;;27.90;20.58;;;;;;;;;;5106764;28;20408;-74
2022/03/02 11:41:39;;;;;;;29.48;20.15;;;10.40;99.90;;;;;;5088059;28;20426;-74
2022/03/02 11:44:40;;;;;;;28.03;20.87;;;9.80;99.90;;;;;;5099206;28;20783;-74
2022/03/02 11:47:11;;;;;;;32.05;20.83;;;;;;;;;;5092273;28;20406;-74
2022/03/02 11:49:38;;;;;;;28.23;19.73;;;10.10;99.90;;;;;;5101484;28;20423;-74
2022/03/02 11:52:09;;;;;;;27.73;19.65;;;;;;;;;;5082120;28;20936;-74
2022/03/02 11:54:41;;;;;;;28.08;20.45;;;;;;;;;;5085459;28;20814;-73
2022/03/02 11:57:07;;;;;;;27.87;20.80;;;;;;;;;;5088648;28;20556;-73
2022/03/02 11:59:35;;;;;;;27.25;19.95;;;;;;;;;;5108055;28;20427;-74
2022/03/02 12:02:10;;;;;;;26.38;19.67;;;;;;;;;;5082755;28;20417;-74
2022/03/02 12:04:36;;;;;;;27.85;19.55;;;;;;;;;;5077623;28;20497;-77
2022/03/02 12:07:05;;;;;;;28.30;20.23;;;;;;;;;;5098734;28;20755;-73
2022/03/02 12:09:32;;;;;;;28.00;20.13;;;;;;;;;;5080550;28;20410;-74
2022/03/02 12:12:08;;;;;;;29.48;20.02;;;;;;;;;;5080033;28;20421;-72
2022/03/02 12:14:41;;;;;;;25.77;19.27;;;;;;;;;;5085626;28;20412;-77
2022/03/02 12:17:16;;;;;;;28.52;19.38;;;;;;;;;;5083600;28;20734;-79
2022/03/02 12:19:44;;;;;;;26.55;18.75;;;;;;;;;;5082769;28;20460;-78
2022/03/02 12:22:12;;;;;;;25.77;18.48;;;;;;;;;;5105009;28;20522;-79
2022/03/02 12:24:39;;;;;;;24.70;18.48;;;;;;;;;;5097754;28;20419;-80
2022/03/02 12:27:09;;;;;;;27.97;19.13;;;11.40;99.90;;;;;;5095005;28;20431;-80
2022/03/02 12:29:36;;;;;;;26.17;19.52;;;;;;;;;;5087734;28;20388;-80
2022/03/02 12:32:15;;;;;;;28.40;20.27;;;11.50;99.90;;;;;;5080203;28;20420;-80
2022/03/02 12:34:50;;;;;;;28.50;19.30;;;11.60;99.90;;;;;;5082109;28;20447;-80
2022/03/02 12:37:18;;;;;;;29.35;20.05;;;11.80;99.90;;;;;;5085152;28;20412;-80
2022/03/02 12:39:45;;;;;;;25.95;19.55;;;;;;;;;;5089377;28;20470;-81
2022/03/02 12:42:11;;;;;;;25.52;19.63;;;11.30;99.90;;;;;;5094174;28;20765;-80
2022/03/02 12:44:41;;;;;;;25.88;19.50;;;11.10;99.90;;;;;;5093789;28;20412;-80
2022/03/02 12:47:11;;;;;;;27.85;20.23;;;11.00;99.90;;;;;;5106722;28;20481;-80
2022/03/02 12:49:39;;;;;;;23.92;18.52;;;;;;;;;;5103211;27;20423;-80
2022/03/02 12:52:05;;;;;;;26.17;19.38;;;;;;;;;;5100814;28;20420;-80
2022/03/02 12:54:34;;;;;;;27.70;19.20;;;11.60;99.90;;;;;;5097944;28;20427;-80
2022/03/02 12:57:02;;;;;;;26.38;19.52;;;;;;;;;;5100072;28;20423;-80
2022/03/02 12:59:28;;;;;;;29.60;19.67;;;;;;;;;;5079299;28;20499;-81
2022/03/02 13:01:55;;;;;;;24.73;18.75;;;;;;;;;;5095780;28;20474;-81
2022/03/02 13:04:44;;;;;;;25.77;19.85;;;11.60;99.90;;;;;;5106097;28;20420;-81
2022/03/02 13:07:16;;;;;;;26.23;19.05;;;;;;;;;;5086414;28;20445;-80
2022/03/02 13:10:05;;;;;;;28.10;19.90;;;12.10;99.90;;;;;;5077527;28;20415;-80
2022/03/02 13:12:33;;;;;;;24.70;19.67;;;;;;;;;;5073990;28;20420;-80
2022/03/02 13:15:00;;;;;;;26.83;19.48;;;12.20;99.90;;;;;;5096037;28;20412;-80
2022/03/02 13:17:27;;;;;;;26.05;20.55;;;;;;;;;;5083627;28;20422;-81
2022/03/02 13:19:54;;;;;;;27.27;19.87;;;;;;;;;;5100278;28;20428;-74
2022/03/02 13:22:32;;;;;;;25.70;19.77;;;11.60;99.90;;;;;;5082802;28;20417;-75
2022/03/02 13:25:05;;;;;;;25.90;19.75;;;11.80;99.90;;;;;;5083078;28;20416;-76
2022/03/02 13:27:32;;;;;;;25.63;18.90;;;;;;;;;;5104048;28;20416;-75
2022/03/02 13:29:59;;;;;;;25.95;20.35;;;;;;;;;;5098932;28;21083;-74
2022/03/02 13:32:46;;;;;;;29.42;20.75;;;;;;;;;;5094288;28;20433;-75
2022/03/02 13:35:13;;;;;;;27.10;20.00;;;;;;;;;;5102267;28;20424;-74
2022/03/02 13:37:58;;;;;;;25.93;19.63;;;;;;;;;;5100090;27;20528;-74
2022/03/02 13:40:33;;;;;;;24.90;18.55;;;;;;;;;;5097482;27;20432;-75
2022/03/02 13:43:06;;;;;;;26.15;19.13;;;;;;;;;;5105721;28;20450;-74
2022/03/02 13:45:36;;;;;;;29.92;20.00;;;;;;;;;;5100444;28;20445;-74
2022/03/02 13:48:31;;;;;;;26.15;19.27;;;;;;;;;;5085310;28;20412;-74
2022/03/02 13:50:57;;;;;;;26.45;19.15;;;;;;;;;;5086629;28;20424;-74
2022/03/02 13:53:44;;;;;;;27.23;19.45;;;10.40;99.90;;;;;;5084895;27;20406;-74
2022/03/02 13:56:19;;;;;;;25.27;18.75;;;10.40;99.90;;;;;;5089898;28;20767;-74
2022/03/02 13:58:49;;;;;;;28.13;19.30;;;10.40;99.90;;;;;;5091185;28;20441;-79